sensor_id;sensor_type;location;lat;lon;timestamp;temperature;humidity
66710;DHT22;53624;0.000;0.000;2022-12-18T00:00:47;5.00;99.90
66710;DHT22;53624;0.000;0.000;2022-12-18T00:03:15;5.00;99.90
66710;DHT22;53624;0.000;0.000;2022-12-18T00:05:48;5.00;99.90
66710;DHT22;53624;0.000;0.000;2022-12-18T00:08:15;5.00;99.90
66710;DHT22;53624;0.000;0.000;2022-12-18T00:10:43;5.00;99.90
66710;DHT22;53624;0.000;0.000;2022-12-18T00:13:11;5.00;99.90
66710;DHT22;53624;0.000;0.000;2022-12-18T00:15:39;5.00;99.90
66710;DHT22;53624;0.000;0.000;2022-12-18T00:18:07;5.00;99.90
66710;DHT22;53624;0.000;0.000;2022-12-18T00:20:35;5.00;99.90
66710;DHT22;53624;0.000;0.000;2022-12-18T00:23:04;5.00;99.90
66710;DHT22;53624;0.000;0.000;2022-12-18T00:25:32;5.00;99.90
66710;DHT22;53624;0.000;0.000;2022-12-18T00:28:00;5.00;99.90
66710;DHT22;53624;0.000;0.000;2022-12-18T00:30:27;5.00;99.90
66710;DHT22;53624;0.000;0.000;2022-12-18T00:32:55;5.00;99.90
66710;DHT22;53624;0.000;0.000;2022-12-18T00:35:25;5.00;99.90
66710;DHT22;53624;0.000;0.000;2022-12-18T00:37:52;5.00;99.90
66710;DHT22;53624;0.000;0.000;2022-12-18T00:40:21;5.00;99.90
66710;DHT22;53624;0.000;0.000;2022-12-18T00:42:49;4.90;99.90
66710;DHT22;53624;0.000;0.000;2022-12-18T00:45:25;5.00;99.90
66710;DHT22;53624;0.000;0.000;2022-12-18T00:47:53;4.90;99.90
66710;DHT22;53624;0.000;0.000;2022-12-18T00:50:21;5.00;99.90
66710;DHT22;53624;0.000;0.000;2022-12-18T00:52:49;4.90;99.90
66710;DHT22;53624;0.000;0.000;2022-12-18T00:55:16;4.90;99.90
66710;DHT22;53624;0.000;0.000;2022-12-18T00:57:48;4.90;99.90
66710;DHT22;53624;0.000;0.000;2022-12-18T01:00:15;5.00;99.90
66710;DHT22;53624;0.000;0.000;2022-12-18T01:02:43;4.90;99.90
66710;DHT22;53624;0.000;0.000;2022-12-18T01:05:11;4.90;99.90
66710;DHT22;53624;0.000;0.000;2022-12-18T01:07:39;4.90;99.90
66710;DHT22;53624;0.000;0.000;2022-12-18T01:10:07;4.90;99.90
66710;DHT22;53624;0.000;0.000;2022-12-18T01:12:35;4.90;99.90
66710;DHT22;53624;0.000;0.000;2022-12-18T01:15:04;4.90;99.90
66710;DHT22;53624;0.000;0.000;2022-12-18T01:17:32;4.90;99.90
66710;DHT22;53624;0.000;0.000;2022-12-18T01:20:00;4.90;99.90
66710;DHT22;53624;0.000;0.000;2022-12-18T01:22:28;4.90;99.90
66710;DHT22;53624;0.000;0.000;2022-12-18T01:24:55;4.90;99.90
66710;DHT22;53624;0.000;0.000;2022-12-18T01:27:23;4.90;99.90
66710;DHT22;53624;0.000;0.000;2022-12-18T01:29:51;4.90;99.90
66710;DHT22;53624;0.000;0.000;2022-12-18T01:32:20;4.90;99.90
66710;DHT22;53624;0.000;0.000;2022-12-18T01:34:49;4.90;99.90
66710;DHT22;53624;0.000;0.000;2022-12-18T01:37:17;4.90;99.90
66710;DHT22;53624;0.000;0.000;2022-12-18T01:39:44;4.80;99.90
66710;DHT22;53624;0.000;0.000;2022-12-18T01:42:13;4.80;99.90
66710;DHT22;53624;0.000;0.000;2022-12-18T01:44:53;4.80;99.90
66710;DHT22;53624;0.000;0.000;2022-12-18T01:47:23;4.80;99.90
66710;DHT22;53624;0.000;0.000;2022-12-18T01:49:51;4.80;99.90
66710;DHT22;53624;0.000;0.000;2022-12-18T01:52:19;4.80;99.90
66710;DHT22;53624;0.000;0.000;2022-12-18T01:54:47;4.80;99.90
66710;DHT22;53624;0.000;0.000;2022-12-18T01:57:15;4.80;99.90
66710;DHT22;53624;0.000;0.000;2022-12-18T01:59:44;4.80;99.90
66710;DHT22;53624;0.000;0.000;2022-12-18T02:02:12;4.70;99.90
66710;DHT22;53624;0.000;0.000;2022-12-18T02:04:41;4.70;99.90
66710;DHT22;53624;0.000;0.000;2022-12-18T02:07:10;4.70;99.90
66710;DHT22;53624;0.000;0.000;2022-12-18T02:09:41;4.70;99.90
66710;DHT22;53624;0.000;0.000;2022-12-18T02:12:12;4.70;99.90
66710;DHT22;53624;0.000;0.000;2022-12-18T02:14:43;4.70;99.90
66710;DHT22;53624;0.000;0.000;2022-12-18T02:17:13;4.70;99.90
66710;DHT22;53624;0.000;0.000;2022-12-18T02:19:47;4.70;99.90
66710;DHT22;53624;0.000;0.000;2022-12-18T02:22:24;4.70;99.90
66710;DHT22;53624;0.000;0.000;2022-12-18T02:24:57;4.70;99.90
66710;DHT22;53624;0.000;0.000;2022-12-18T02:27:28;4.60;99.90
66710;DHT22;53624;0.000;0.000;2022-12-18T02:29:57;4.70;99.90
66710;DHT22;53624;0.000;0.000;2022-12-18T02:32:28;4.60;99.90
66710;DHT22;53624;0.000;0.000;2022-12-18T02:34:57;4.60;99.90
66710;DHT22;53624;0.000;0.000;2022-12-18T02:37:28;4.60;99.90
66710;DHT22;53624;0.000;0.000;2022-12-18T02:39:59;4.60;99.90
66710;DHT22;53624;0.000;0.000;2022-12-18T02:42:31;4.60;99.90
66710;DHT22;53624;0.000;0.000;2022-12-18T02:45:00;4.60;99.90
66710;DHT22;53624;0.000;0.000;2022-12-18T02:47:29;4.60;99.90
66710;DHT22;53624;0.000;0.000;2022-12-18T02:49:59;4.60;99.90
66710;DHT22;53624;0.000;0.000;2022-12-18T02:52:33;4.60;99.90
66710;DHT22;53624;0.000;0.000;2022-12-18T02:55:08;4.60;99.90
66710;DHT22;53624;0.000;0.000;2022-12-18T02:57:44;4.50;99.90
66710;DHT22;53624;0.000;0.000;2022-12-18T03:00:14;4.60;99.90
66710;DHT22;53624;0.000;0.000;2022-12-18T03:02:44;4.50;99.90
66710;DHT22;53624;0.000;0.000;2022-12-18T03:05:13;4.50;99.90
66710;DHT22;53624;0.000;0.000;2022-12-18T03:07:45;4.50;99.90
66710;DHT22;53624;0.000;0.000;2022-12-18T03:10:16;4.50;99.90
66710;DHT22;53624;0.000;0.000;2022-12-18T03:12:49;4.50;99.90
66710;DHT22;53624;0.000;0.000;2022-12-18T03:15:20;4.50;99.90
66710;DHT22;53624;0.000;0.000;2022-12-18T03:17:56;4.50;99.90
66710;DHT22;53624;0.000;0.000;2022-12-18T03:20:26;4.40;99.90
66710;DHT22;53624;0.000;0.000;2022-12-18T03:22:57;4.40;99.90
66710;DHT22;53624;0.000;0.000;2022-12-18T03:25:27;4.40;99.90
66710;DHT22;53624;0.000;0.000;2022-12-18T03:27:57;4.40;99.90
66710;DHT22;53624;0.000;0.000;2022-12-18T03:30:26;4.40;99.90
66710;DHT22;53624;0.000;0.000;2022-12-18T03:32:53;4.40;99.90
66710;DHT22;53624;0.000;0.000;2022-12-18T03:35:25;4.40;99.90
66710;DHT22;53624;0.000;0.000;2022-12-18T03:37:53;4.40;99.90
66710;DHT22;53624;0.000;0.000;2022-12-18T03:40:24;4.40;99.90
66710;DHT22;53624;0.000;0.000;2022-12-18T03:42:55;4.40;99.90
66710;DHT22;53624;0.000;0.000;2022-12-18T03:45:27;4.40;99.90
66710;DHT22;53624;0.000;0.000;2022-12-18T03:48:01;4.40;99.90
66710;DHT22;53624;0.000;0.000;2022-12-18T03:50:36;4.40;99.90
66710;DHT22;53624;0.000;0.000;2022-12-18T03:53:08;4.30;99.90
66710;DHT22;53624;0.000;0.000;2022-12-18T03:55:41;4.30;99.90
66710;DHT22;53624;0.000;0.000;2022-12-18T03:58:10;4.30;99.90
66710;DHT22;53624;0.000;0.000;2022-12-18T04:00:50;4.30;99.90
66710;DHT22;53624;0.000;0.000;2022-12-18T04:03:19;4.30;99.90
66710;DHT22;53624;0.000;0.000;2022-12-18T04:05:48;4.30;99.90
66710;DHT22;53624;0.000;0.000;2022-12-18T04:08:19;4.30;99.90
66710;DHT22;53624;0.000;0.000;2022-12-18T04:10:56;4.30;99.90
66710;DHT22;53624;0.000;0.000;2022-12-18T04:13:27;4.30;99.90
66710;DHT22;53624;0.000;0.000;2022-12-18T04:15:58;4.30;99.90
66710;DHT22;53624;0.000;0.000;2022-12-18T04:18:26;4.30;99.90
66710;DHT22;53624;0.000;0.000;2022-12-18T04:20:54;4.30;99.90
66710;DHT22;53624;0.000;0.000;2022-12-18T04:23:24;4.30;99.90
66710;DHT22;53624;0.000;0.000;2022-12-18T04:25:55;4.30;99.90
66710;DHT22;53624;0.000;0.000;2022-12-18T04:28:38;4.30;99.90
66710;DHT22;53624;0.000;0.000;2022-12-18T04:31:08;4.30;99.90
66710;DHT22;53624;0.000;0.000;2022-12-18T04:33:35;4.20;99.90
66710;DHT22;53624;0.000;0.000;2022-12-18T04:36:04;4.30;99.90
66710;DHT22;53624;0.000;0.000;2022-12-18T04:38:31;4.20;99.90
66710;DHT22;53624;0.000;0.000;2022-12-18T04:41:05;4.20;99.90
66710;DHT22;53624;0.000;0.000;2022-12-18T04:43:33;4.30;99.90
66710;DHT22;53624;0.000;0.000;2022-12-18T04:46:01;4.20;99.90
66710;DHT22;53624;0.000;0.000;2022-12-18T04:48:30;4.20;99.90
66710;DHT22;53624;0.000;0.000;2022-12-18T04:50:58;4.20;99.90
66710;DHT22;53624;0.000;0.000;2022-12-18T04:53:26;4.20;99.90
66710;DHT22;53624;0.000;0.000;2022-12-18T04:56:01;4.20;99.90
66710;DHT22;53624;0.000;0.000;2022-12-18T04:58:29;4.20;99.90
66710;DHT22;53624;0.000;0.000;2022-12-18T05:00:56;4.20;99.90
66710;DHT22;53624;0.000;0.000;2022-12-18T05:03:24;4.20;99.90
66710;DHT22;53624;0.000;0.000;2022-12-18T05:05:53;4.20;99.90
66710;DHT22;53624;0.000;0.000;2022-12-18T05:08:20;4.20;99.90
66710;DHT22;53624;0.000;0.000;2022-12-18T05:10:48;4.20;99.90
66710;DHT22;53624;0.000;0.000;2022-12-18T05:13:15;4.20;99.90
66710;DHT22;53624;0.000;0.000;2022-12-18T05:15:42;4.20;99.90
66710;DHT22;53624;0.000;0.000;2022-12-18T05:18:18;4.20;99.90
66710;DHT22;53624;0.000;0.000;2022-12-18T05:20:45;4.10;99.90
66710;DHT22;53624;0.000;0.000;2022-12-18T05:23:14;4.10;99.90
66710;DHT22;53624;0.000;0.000;2022-12-18T05:25:42;4.10;99.90
66710;DHT22;53624;0.000;0.000;2022-12-18T05:28:09;4.10;99.90
66710;DHT22;53624;0.000;0.000;2022-12-18T05:30:37;4.10;99.90
66710;DHT22;53624;0.000;0.000;2022-12-18T05:33:04;4.10;99.90
66710;DHT22;53624;0.000;0.000;2022-12-18T05:35:32;4.10;99.90
66710;DHT22;53624;0.000;0.000;2022-12-18T05:37:59;4.10;99.90
66710;DHT22;53624;0.000;0.000;2022-12-18T05:40:28;4.10;99.90
66710;DHT22;53624;0.000;0.000;2022-12-18T05:42:55;4.10;99.90
66710;DHT22;53624;0.000;0.000;2022-12-18T05:45:23;4.10;99.90
66710;DHT22;53624;0.000;0.000;2022-12-18T05:47:50;4.10;99.90
66710;DHT22;53624;0.000;0.000;2022-12-18T05:50:18;4.10;99.90
66710;DHT22;53624;0.000;0.000;2022-12-18T05:52:45;4.00;99.90
66710;DHT22;53624;0.000;0.000;2022-12-18T05:55:13;4.00;99.90
66710;DHT22;53624;0.000;0.000;2022-12-18T05:57:42;4.00;99.90
66710;DHT22;53624;0.000;0.000;2022-12-18T06:00:10;4.00;99.90
66710;DHT22;53624;0.000;0.000;2022-12-18T06:02:40;4.00;99.90
66710;DHT22;53624;0.000;0.000;2022-12-18T06:05:08;4.00;99.90
66710;DHT22;53624;0.000;0.000;2022-12-18T06:07:36;4.00;99.90
66710;DHT22;53624;0.000;0.000;2022-12-18T06:10:04;4.00;99.90
66710;DHT22;53624;0.000;0.000;2022-12-18T06:12:32;4.00;99.90
66710;DHT22;53624;0.000;0.000;2022-12-18T06:15:01;4.00;99.90
66710;DHT22;53624;0.000;0.000;2022-12-18T06:17:28;4.00;99.90
66710;DHT22;53624;0.000;0.000;2022-12-18T06:19:56;4.00;99.90
66710;DHT22;53624;0.000;0.000;2022-12-18T06:22:24;4.00;99.90
66710;DHT22;53624;0.000;0.000;2022-12-18T06:24:52;4.00;99.90
66710;DHT22;53624;0.000;0.000;2022-12-18T06:27:19;4.00;99.90
66710;DHT22;53624;0.000;0.000;2022-12-18T06:29:47;4.00;99.90
66710;DHT22;53624;0.000;0.000;2022-12-18T06:32:15;4.00;99.90
66710;DHT22;53624;0.000;0.000;2022-12-18T06:34:43;4.00;99.90
66710;DHT22;53624;0.000;0.000;2022-12-18T06:37:10;4.00;99.90
66710;DHT22;53624;0.000;0.000;2022-12-18T06:39:38;4.00;99.90
66710;DHT22;53624;0.000;0.000;2022-12-18T06:42:05;3.90;99.90
66710;DHT22;53624;0.000;0.000;2022-12-18T06:44:33;3.90;99.90
66710;DHT22;53624;0.000;0.000;2022-12-18T06:47:00;3.90;99.90
66710;DHT22;53624;0.000;0.000;2022-12-18T06:49:29;3.90;99.90
66710;DHT22;53624;0.000;0.000;2022-12-18T06:51:57;3.90;99.90
66710;DHT22;53624;0.000;0.000;2022-12-18T06:54:24;3.90;99.90
66710;DHT22;53624;0.000;0.000;2022-12-18T06:56:51;3.90;99.90
66710;DHT22;53624;0.000;0.000;2022-12-18T06:59:19;3.90;99.90
66710;DHT22;53624;0.000;0.000;2022-12-18T07:01:46;3.90;99.90
66710;DHT22;53624;0.000;0.000;2022-12-18T07:04:14;3.90;99.90
66710;DHT22;53624;0.000;0.000;2022-12-18T07:06:43;3.90;99.90
66710;DHT22;53624;0.000;0.000;2022-12-18T07:09:10;3.90;99.90
66710;DHT22;53624;0.000;0.000;2022-12-18T07:11:38;3.90;99.90
66710;DHT22;53624;0.000;0.000;2022-12-18T07:14:05;3.90;99.90
66710;DHT22;53624;0.000;0.000;2022-12-18T07:16:33;3.90;99.90
66710;DHT22;53624;0.000;0.000;2022-12-18T07:19:00;3.90;99.90
66710;DHT22;53624;0.000;0.000;2022-12-18T07:21:28;3.90;99.90
66710;DHT22;53624;0.000;0.000;2022-12-18T07:23:56;3.90;99.90
66710;DHT22;53624;0.000;0.000;2022-12-18T07:26:24;3.90;99.90
66710;DHT22;53624;0.000;0.000;2022-12-18T07:28:54;3.90;99.90
66710;DHT22;53624;0.000;0.000;2022-12-18T07:31:22;3.90;99.90
66710;DHT22;53624;0.000;0.000;2022-12-18T07:33:49;4.00;99.90
66710;DHT22;53624;0.000;0.000;2022-12-18T07:36:17;4.00;99.90
66710;DHT22;53624;0.000;0.000;2022-12-18T07:38:46;4.00;99.90
66710;DHT22;53624;0.000;0.000;2022-12-18T07:41:15;4.00;99.90
66710;DHT22;53624;0.000;0.000;2022-12-18T07:43:44;4.00;99.90
66710;DHT22;53624;0.000;0.000;2022-12-18T07:46:12;4.00;99.90
66710;DHT22;53624;0.000;0.000;2022-12-18T07:48:40;4.00;99.90
66710;DHT22;53624;0.000;0.000;2022-12-18T07:51:08;4.00;99.90
66710;DHT22;53624;0.000;0.000;2022-12-18T07:53:39;4.00;99.90
66710;DHT22;53624;0.000;0.000;2022-12-18T07:56:07;4.00;99.90
66710;DHT22;53624;0.000;0.000;2022-12-18T07:58:36;4.00;99.90
66710;DHT22;53624;0.000;0.000;2022-12-18T08:01:05;4.00;99.90
66710;DHT22;53624;0.000;0.000;2022-12-18T08:03:33;4.00;99.90
66710;DHT22;53624;0.000;0.000;2022-12-18T08:06:04;4.00;99.90
66710;DHT22;53624;0.000;0.000;2022-12-18T08:08:33;4.00;99.90
66710;DHT22;53624;0.000;0.000;2022-12-18T08:11:01;4.00;99.90
66710;DHT22;53624;0.000;0.000;2022-12-18T08:13:28;4.00;99.90
66710;DHT22;53624;0.000;0.000;2022-12-18T08:15:58;4.00;99.90
66710;DHT22;53624;0.000;0.000;2022-12-18T08:18:25;4.00;99.90
66710;DHT22;53624;0.000;0.000;2022-12-18T08:20:53;4.10;99.90
66710;DHT22;53624;0.000;0.000;2022-12-18T08:23:21;4.10;99.90
66710;DHT22;53624;0.000;0.000;2022-12-18T08:25:48;4.10;99.90
66710;DHT22;53624;0.000;0.000;2022-12-18T08:28:17;4.10;99.90
66710;DHT22;53624;0.000;0.000;2022-12-18T08:30:44;4.10;99.90
66710;DHT22;53624;0.000;0.000;2022-12-18T08:33:13;4.10;99.90
66710;DHT22;53624;0.000;0.000;2022-12-18T08:35:41;4.20;99.90
66710;DHT22;53624;0.000;0.000;2022-12-18T08:38:08;4.20;99.90
66710;DHT22;53624;0.000;0.000;2022-12-18T08:40:36;4.30;99.90
66710;DHT22;53624;0.000;0.000;2022-12-18T08:43:03;4.30;99.90
66710;DHT22;53624;0.000;0.000;2022-12-18T08:45:48;4.40;99.90
66710;DHT22;53624;0.000;0.000;2022-12-18T08:48:17;4.50;99.90
66710;DHT22;53624;0.000;0.000;2022-12-18T08:50:52;4.60;99.90
66710;DHT22;53624;0.000;0.000;2022-12-18T08:53:20;4.70;99.90
66710;DHT22;53624;0.000;0.000;2022-12-18T08:55:50;4.80;99.90
66710;DHT22;53624;0.000;0.000;2022-12-18T08:58:18;4.90;99.90
66710;DHT22;53624;0.000;0.000;2022-12-18T09:00:46;5.00;99.90
66710;DHT22;53624;0.000;0.000;2022-12-18T09:03:13;5.20;99.90
66710;DHT22;53624;0.000;0.000;2022-12-18T09:05:43;5.30;99.90
66710;DHT22;53624;0.000;0.000;2022-12-18T09:08:10;5.40;99.90
66710;DHT22;53624;0.000;0.000;2022-12-18T09:10:41;5.60;99.90
66710;DHT22;53624;0.000;0.000;2022-12-18T09:13:09;5.70;99.90
66710;DHT22;53624;0.000;0.000;2022-12-18T09:15:39;5.90;99.90
66710;DHT22;53624;0.000;0.000;2022-12-18T09:18:07;6.10;99.90
66710;DHT22;53624;0.000;0.000;2022-12-18T09:20:35;6.30;99.90
66710;DHT22;53624;0.000;0.000;2022-12-18T09:23:04;6.60;99.90
66710;DHT22;53624;0.000;0.000;2022-12-18T09:25:32;6.90;99.90
66710;DHT22;53624;0.000;0.000;2022-12-18T09:28:01;7.00;99.90
66710;DHT22;53624;0.000;0.000;2022-12-18T09:30:29;7.20;99.90
66710;DHT22;53624;0.000;0.000;2022-12-18T09:32:59;7.30;99.90
66710;DHT22;53624;0.000;0.000;2022-12-18T09:35:26;7.50;99.90
66710;DHT22;53624;0.000;0.000;2022-12-18T09:37:54;7.70;99.90
66710;DHT22;53624;0.000;0.000;2022-12-18T09:40:24;7.80;99.90
66710;DHT22;53624;0.000;0.000;2022-12-18T09:42:54;8.00;99.90
66710;DHT22;53624;0.000;0.000;2022-12-18T09:45:23;8.20;99.90
66710;DHT22;53624;0.000;0.000;2022-12-18T09:47:50;8.40;99.90
66710;DHT22;53624;0.000;0.000;2022-12-18T09:50:22;8.60;99.90
66710;DHT22;53624;0.000;0.000;2022-12-18T09:52:51;8.80;99.90
66710;DHT22;53624;0.000;0.000;2022-12-18T09:55:22;9.00;99.90
66710;DHT22;53624;0.000;0.000;2022-12-18T09:57:53;9.10;99.90
66710;DHT22;53624;0.000;0.000;2022-12-18T10:00:22;9.30;99.90
66710;DHT22;53624;0.000;0.000;2022-12-18T10:02:50;9.50;99.90
66710;DHT22;53624;0.000;0.000;2022-12-18T10:05:20;9.60;99.90
66710;DHT22;53624;0.000;0.000;2022-12-18T10:07:52;9.80;99.90
66710;DHT22;53624;0.000;0.000;2022-12-18T10:10:23;9.90;99.90
66710;DHT22;53624;0.000;0.000;2022-12-18T10:12:56;10.10;99.90
66710;DHT22;53624;0.000;0.000;2022-12-18T10:15:28;10.20;99.90
66710;DHT22;53624;0.000;0.000;2022-12-18T10:18:00;10.30;99.90
66710;DHT22;53624;0.000;0.000;2022-12-18T10:20:32;10.50;99.90
66710;DHT22;53624;0.000;0.000;2022-12-18T10:23:02;10.60;99.90
66710;DHT22;53624;0.000;0.000;2022-12-18T10:25:31;10.80;99.90
66710;DHT22;53624;0.000;0.000;2022-12-18T10:28:07;10.90;99.90
66710;DHT22;53624;0.000;0.000;2022-12-18T10:30:36;11.00;99.90
66710;DHT22;53624;0.000;0.000;2022-12-18T10:33:05;11.20;99.90
66710;DHT22;53624;0.000;0.000;2022-12-18T10:35:33;11.30;99.90
66710;DHT22;53624;0.000;0.000;2022-12-18T10:38:02;11.40;99.90
66710;DHT22;53624;0.000;0.000;2022-12-18T10:40:30;11.60;99.90
66710;DHT22;53624;0.000;0.000;2022-12-18T10:43:10;11.70;99.90
66710;DHT22;53624;0.000;0.000;2022-12-18T10:45:38;11.90;99.90
66710;DHT22;53624;0.000;0.000;2022-12-18T10:48:17;12.10;99.90
66710;DHT22;53624;0.000;0.000;2022-12-18T10:50:46;12.20;99.90
66710;DHT22;53624;0.000;0.000;2022-12-18T10:53:16;12.40;99.90
66710;DHT22;53624;0.000;0.000;2022-12-18T10:55:45;12.50;99.90
66710;DHT22;53624;0.000;0.000;2022-12-18T10:58:18;12.70;99.90
66710;DHT22;53624;0.000;0.000;2022-12-18T11:01:01;12.90;99.90
66710;DHT22;53624;0.000;0.000;2022-12-18T11:03:29;13.00;99.90
66710;DHT22;53624;0.000;0.000;2022-12-18T11:06:08;13.20;99.90
66710;DHT22;53624;0.000;0.000;2022-12-18T11:08:36;13.30;99.90
66710;DHT22;53624;0.000;0.000;2022-12-18T11:11:04;13.50;99.90
66710;DHT22;53624;0.000;0.000;2022-12-18T11:13:35;13.70;99.90
66710;DHT22;53624;0.000;0.000;2022-12-18T11:16:03;13.80;99.90
66710;DHT22;53624;0.000;0.000;2022-12-18T11:18:32;14.00;99.90
66710;DHT22;53624;0.000;0.000;2022-12-18T11:21:01;14.10;99.90
66710;DHT22;53624;0.000;0.000;2022-12-18T11:23:33;14.20;99.90
66710;DHT22;53624;0.000;0.000;2022-12-18T11:26:02;14.30;99.90
66710;DHT22;53624;0.000;0.000;2022-12-18T11:28:38;14.40;99.90
66710;DHT22;53624;0.000;0.000;2022-12-18T11:31:15;14.50;99.90
66710;DHT22;53624;0.000;0.000;2022-12-18T11:33:44;14.60;99.90
66710;DHT22;53624;0.000;0.000;2022-12-18T11:36:13;14.70;99.90
66710;DHT22;53624;0.000;0.000;2022-12-18T11:38:41;14.80;99.90
66710;DHT22;53624;0.000;0.000;2022-12-18T11:41:13;14.90;99.90
66710;DHT22;53624;0.000;0.000;2022-12-18T11:43:47;15.00;99.90
66710;DHT22;53624;0.000;0.000;2022-12-18T11:46:17;15.20;99.90
66710;DHT22;53624;0.000;0.000;2022-12-18T11:48:47;15.30;99.90
66710;DHT22;53624;0.000;0.000;2022-12-18T11:51:20;15.40;99.90
66710;DHT22;53624;0.000;0.000;2022-12-18T11:53:51;15.50;99.90
66710;DHT22;53624;0.000;0.000;2022-12-18T11:56:26;15.70;99.90
66710;DHT22;53624;0.000;0.000;2022-12-18T11:58:58;15.80;99.90
66710;DHT22;53624;0.000;0.000;2022-12-18T12:01:34;16.00;99.90
66710;DHT22;53624;0.000;0.000;2022-12-18T12:06:53;16.20;99.90
66710;DHT22;53624;0.000;0.000;2022-12-18T12:09:25;16.40;99.90
66710;DHT22;53624;0.000;0.000;2022-12-18T12:11:58;16.50;99.90
66710;DHT22;53624;0.000;0.000;2022-12-18T12:14:41;16.50;99.90
66710;DHT22;53624;0.000;0.000;2022-12-18T12:17:12;16.60;99.90
66710;DHT22;53624;0.000;0.000;2022-12-18T12:19:43;16.80;99.90
66710;DHT22;53624;0.000;0.000;2022-12-18T12:22:14;16.90;99.90
66710;DHT22;53624;0.000;0.000;2022-12-18T12:24:49;17.10;99.90
66710;DHT22;53624;0.000;0.000;2022-12-18T12:27:21;17.20;99.90
66710;DHT22;53624;0.000;0.000;2022-12-18T12:29:54;17.20;99.90
66710;DHT22;53624;0.000;0.000;2022-12-18T12:32:30;17.30;99.90
66710;DHT22;53624;0.000;0.000;2022-12-18T12:35:06;17.40;99.90
66710;DHT22;53624;0.000;0.000;2022-12-18T12:37:38;17.50;99.90
66710;DHT22;53624;0.000;0.000;2022-12-18T12:40:10;17.60;99.90
66710;DHT22;53624;0.000;0.000;2022-12-18T12:42:40;17.70;99.90
66710;DHT22;53624;0.000;0.000;2022-12-18T12:45:28;17.70;99.90
66710;DHT22;53624;0.000;0.000;2022-12-18T12:47:56;17.80;99.90
66710;DHT22;53624;0.000;0.000;2022-12-18T12:50:26;17.90;99.90
66710;DHT22;53624;0.000;0.000;2022-12-18T12:52:54;17.90;99.90
66710;DHT22;53624;0.000;0.000;2022-12-18T12:55:23;18.00;99.90
66710;DHT22;53624;0.000;0.000;2022-12-18T12:57:54;18.00;99.90
66710;DHT22;53624;0.000;0.000;2022-12-18T13:00:23;18.10;99.90
66710;DHT22;53624;0.000;0.000;2022-12-18T13:02:54;18.20;99.90
66710;DHT22;53624;0.000;0.000;2022-12-18T13:05:28;18.20;99.90
66710;DHT22;53624;0.000;0.000;2022-12-18T13:07:59;18.30;99.90
66710;DHT22;53624;0.000;0.000;2022-12-18T13:10:32;18.40;99.90
66710;DHT22;53624;0.000;0.000;2022-12-18T13:13:01;18.40;99.90
66710;DHT22;53624;0.000;0.000;2022-12-18T13:15:32;18.50;99.90
66710;DHT22;53624;0.000;0.000;2022-12-18T13:18:09;18.50;99.90
66710;DHT22;53624;0.000;0.000;2022-12-18T13:20:39;18.50;99.90
66710;DHT22;53624;0.000;0.000;2022-12-18T13:23:26;18.40;99.90
66710;DHT22;53624;0.000;0.000;2022-12-18T13:25:54;18.40;99.90
66710;DHT22;53624;0.000;0.000;2022-12-18T13:28:23;18.30;99.90
66710;DHT22;53624;0.000;0.000;2022-12-18T13:30:55;18.20;99.90
66710;DHT22;53624;0.000;0.000;2022-12-18T13:41:34;17.90;99.90
66710;DHT22;53624;0.000;0.000;2022-12-18T13:44:10;17.80;99.90
66710;DHT22;53624;0.000;0.000;2022-12-18T13:46:42;17.70;99.90
66710;DHT22;53624;0.000;0.000;2022-12-18T13:49:17;17.60;99.90
66710;DHT22;53624;0.000;0.000;2022-12-18T13:51:49;17.40;99.90
66710;DHT22;53624;0.000;0.000;2022-12-18T13:54:18;17.20;99.90
66710;DHT22;53624;0.000;0.000;2022-12-18T13:56:48;17.10;99.90
66710;DHT22;53624;0.000;0.000;2022-12-18T13:59:16;16.90;99.90
66710;DHT22;53624;0.000;0.000;2022-12-18T14:01:45;16.70;99.90
66710;DHT22;53624;0.000;0.000;2022-12-18T14:04:18;16.60;99.90
66710;DHT22;53624;0.000;0.000;2022-12-18T14:06:45;16.40;99.90
66710;DHT22;53624;0.000;0.000;2022-12-18T14:09:14;16.20;99.90
66710;DHT22;53624;0.000;0.000;2022-12-18T14:11:46;16.10;99.90
66710;DHT22;53624;0.000;0.000;2022-12-18T14:14:15;16.00;99.90
66710;DHT22;53624;0.000;0.000;2022-12-18T14:16:43;15.80;99.90
66710;DHT22;53624;0.000;0.000;2022-12-18T14:19:12;15.60;99.90
66710;DHT22;53624;0.000;0.000;2022-12-18T14:21:41;15.50;99.90
66710;DHT22;53624;0.000;0.000;2022-12-18T14:24:13;15.30;99.90
66710;DHT22;53624;0.000;0.000;2022-12-18T14:26:41;15.20;99.90
66710;DHT22;53624;0.000;0.000;2022-12-18T14:29:21;15.00;99.90
66710;DHT22;53624;0.000;0.000;2022-12-18T14:34:31;14.80;99.90
66710;DHT22;53624;0.000;0.000;2022-12-18T14:36:59;14.60;99.90
66710;DHT22;53624;0.000;0.000;2022-12-18T14:39:27;14.50;99.90
66710;DHT22;53624;0.000;0.000;2022-12-18T14:41:54;14.30;99.90
66710;DHT22;53624;0.000;0.000;2022-12-18T14:44:23;14.20;99.90
66710;DHT22;53624;0.000;0.000;2022-12-18T14:46:51;14.10;99.90
66710;DHT22;53624;0.000;0.000;2022-12-18T14:49:21;14.00;99.90
66710;DHT22;53624;0.000;0.000;2022-12-18T14:51:49;13.90;99.90
66710;DHT22;53624;0.000;0.000;2022-12-18T14:54:18;13.80;99.90
66710;DHT22;53624;0.000;0.000;2022-12-18T14:56:47;13.70;99.90
66710;DHT22;53624;0.000;0.000;2022-12-18T14:59:15;13.60;99.90
66710;DHT22;53624;0.000;0.000;2022-12-18T15:01:47;13.50;99.90
66710;DHT22;53624;0.000;0.000;2022-12-18T15:04:23;13.40;99.90
66710;DHT22;53624;0.000;0.000;2022-12-18T15:07:02;13.30;99.90
66710;DHT22;53624;0.000;0.000;2022-12-18T15:09:29;13.30;99.90
66710;DHT22;53624;0.000;0.000;2022-12-18T15:11:57;13.10;99.90
66710;DHT22;53624;0.000;0.000;2022-12-18T15:14:32;13.10;99.90
66710;DHT22;53624;0.000;0.000;2022-12-18T15:17:04;12.90;99.90
66710;DHT22;53624;0.000;0.000;2022-12-18T15:19:33;12.90;99.90
66710;DHT22;53624;0.000;0.000;2022-12-18T15:22:01;12.80;99.90
66710;DHT22;53624;0.000;0.000;2022-12-18T15:24:29;12.70;99.90
66710;DHT22;53624;0.000;0.000;2022-12-18T15:26:58;12.60;99.90
66710;DHT22;53624;0.000;0.000;2022-12-18T15:29:26;12.60;99.90
66710;DHT22;53624;0.000;0.000;2022-12-18T15:32:00;12.50;99.90
66710;DHT22;53624;0.000;0.000;2022-12-18T15:34:30;12.40;99.90
66710;DHT22;53624;0.000;0.000;2022-12-18T15:36:59;12.30;99.90
66710;DHT22;53624;0.000;0.000;2022-12-18T15:39:27;12.20;99.90
66710;DHT22;53624;0.000;0.000;2022-12-18T15:41:55;12.10;99.90
66710;DHT22;53624;0.000;0.000;2022-12-18T15:44:40;12.10;99.90
66710;DHT22;53624;0.000;0.000;2022-12-18T15:47:09;12.00;99.90
66710;DHT22;53624;0.000;0.000;2022-12-18T15:49:38;11.90;99.90
66710;DHT22;53624;0.000;0.000;2022-12-18T15:52:06;11.80;99.90
66710;DHT22;53624;0.000;0.000;2022-12-18T15:54:37;11.80;99.90
66710;DHT22;53624;0.000;0.000;2022-12-18T15:57:21;11.70;99.90
66710;DHT22;53624;0.000;0.000;2022-12-18T15:59:52;11.60;99.90
66710;DHT22;53624;0.000;0.000;2022-12-18T16:02:22;11.50;99.90
66710;DHT22;53624;0.000;0.000;2022-12-18T16:04:51;11.50;99.90
66710;DHT22;53624;0.000;0.000;2022-12-18T16:07:19;11.40;99.90
66710;DHT22;53624;0.000;0.000;2022-12-18T16:09:47;11.30;99.90
66710;DHT22;53624;0.000;0.000;2022-12-18T16:12:15;11.30;99.90
66710;DHT22;53624;0.000;0.000;2022-12-18T16:14:44;11.20;99.90
66710;DHT22;53624;0.000;0.000;2022-12-18T16:17:12;11.10;99.90
66710;DHT22;53624;0.000;0.000;2022-12-18T16:19:40;11.10;99.90
66710;DHT22;53624;0.000;0.000;2022-12-18T16:22:13;11.00;99.90
66710;DHT22;53624;0.000;0.000;2022-12-18T16:24:42;11.00;99.90